Terminal Aerodrome Forecast
Issued by NWS

Home | Current Version | Previous Version | Text Only | Print | Product List | Glossary On
Versions: 1 2 3 4 5 6 7 8 9 10 11 12 13 14 15 16 17 18 19 20 21 22 23
860
FTUS45 KPIH 240631 AAB
TAFSUN
TAF AMD
KSUN 240631Z 2407/2506 12006KT 3SM -SN BR OVC012
     FM241500 18008KT 6SM -SHSN BKN020 OVC035
     FM250400 32005KT P6SM VCSH SCT020 BKN070
      AMD LTD TO CLD VIS AND WIND TIL 241400=

USA.gov is the U.S. government's official web portal to all federal, state and local government web resources and services.